createdAt,value
2022-11-05T00:02:30.141Z,100601.59
2022-11-05T00:07:08.248Z,100613.56
2022-11-05T00:11:41.581Z,100583.25
2022-11-05T00:16:08.882Z,100604.78
2022-11-05T00:20:27.338Z,100582.72
2022-11-05T00:24:49.652Z,100585.09
2022-11-05T00:28:54.492Z,100630.66
2022-11-05T00:33:08.534Z,100630.88
2022-11-05T00:37:19.843Z,100628.63
2022-11-05T00:41:37.539Z,100634.03
2022-11-05T00:46:35.983Z,100623.69
2022-11-05T00:50:53.097Z,100633.44
2022-11-05T00:54:59.997Z,100627.34
2022-11-05T00:59:11.595Z,100624.00
2022-11-05T01:03:32.822Z,100621.44
2022-11-05T01:07:47.489Z,100567.44
2022-11-05T01:11:55.411Z,100611.13
2022-11-05T01:16:25.127Z,100618.13
2022-11-05T01:20:32.817Z,100612.81
2022-11-05T01:24:44.639Z,100598.69
2022-11-05T01:29:04.839Z,100594.84
2022-11-05T01:33:10.078Z,100601.09
2022-11-05T01:37:13.600Z,100595.81
2022-11-05T01:41:18.286Z,100593.91
2022-11-05T01:45:30.173Z,100599.25
2022-11-05T01:49:39.731Z,100591.41
2022-11-05T01:53:51.657Z,100594.56
2022-11-05T02:02:43.100Z,100569.41
2022-11-05T02:07:15.406Z,100573.00
2022-11-05T02:11:29.868Z,100576.81
2022-11-05T02:16:04.712Z,100583.16
2022-11-05T02:20:34.435Z,100561.47
2022-11-05T02:25:22.323Z,100581.59
2022-11-05T02:30:14.677Z,100579.91
2022-11-05T02:34:42.449Z,100565.94
2022-11-05T02:39:03.439Z,100581.50
2022-11-05T02:43:19.782Z,100573.72
2022-11-05T02:47:49.812Z,100583.19
2022-11-05T02:52:05.466Z,100577.91
2022-11-05T02:56:24.858Z,100578.75
2022-11-05T03:01:01.063Z,100582.13
2022-11-05T03:05:09.588Z,100574.88
2022-11-05T03:09:51.195Z,100585.41
2022-11-05T03:14:07.909Z,100581.09
2022-11-05T03:18:27.460Z,100589.53
2022-11-05T03:22:53.037Z,100593.66
2022-11-05T03:28:04.430Z,100565.56
2022-11-05T03:32:55.597Z,100602.28
2022-11-05T03:37:29.059Z,100600.47
2022-11-05T03:41:56.222Z,100583.69
2022-11-05T03:46:18.675Z,100580.72
2022-11-05T03:50:41.845Z,100538.53
2022-11-05T03:55:00.819Z,100593.19
2022-11-05T03:59:19.685Z,100595.41
2022-11-05T04:03:28.517Z,100591.78
2022-11-05T04:07:57.941Z,100598.09
2022-11-05T04:12:40.007Z,100589.84
2022-11-05T04:17:15.363Z,100599.06
2022-11-05T04:21:54.444Z,100587.16
2022-11-05T04:26:16.284Z,100584.75
2022-11-05T04:30:36.116Z,100582.16
2022-11-05T04:35:01.704Z,100591.59
2022-11-05T04:39:40.033Z,100568.75
2022-11-05T04:44:02.220Z,100585.38
2022-11-05T04:48:27.729Z,100589.09
2022-11-05T04:52:54.367Z,100574.31
2022-11-05T04:57:11.268Z,100583.88
2022-11-05T05:01:32.141Z,100586.53
2022-11-05T05:06:02.410Z,100551.56
2022-11-05T05:10:25.931Z,100575.03
2022-11-05T05:14:38.833Z,100618.31
2022-11-05T05:19:00.662Z,100615.28
2022-11-05T05:23:29.392Z,100587.31
2022-11-05T05:28:02.681Z,100607.41
2022-11-05T05:32:56.498Z,100612.94
2022-11-05T05:37:08.725Z,100613.13
2022-11-05T05:41:48.476Z,100632.03
2022-11-05T05:51:55.698Z,100641.59
2022-11-05T05:57:14.954Z,100640.44
2022-11-05T06:02:16.553Z,100650.31
2022-11-05T06:07:02.640Z,100627.94
2022-11-05T06:11:37.724Z,100658.75
2022-11-05T06:15:58.238Z,100678.09
2022-11-05T06:20:13.651Z,100635.09
2022-11-05T06:24:26.100Z,100681.31
2022-11-05T06:28:38.296Z,100676.94
2022-11-05T06:33:07.756Z,100684.75
2022-11-05T06:37:17.282Z,100663.75
2022-11-05T06:41:27.292Z,100672.50
2022-11-05T06:45:55.187Z,100697.84
2022-11-05T06:50:09.935Z,100682.75
2022-11-05T06:54:27.160Z,100640.63
2022-11-05T06:58:50.940Z,100667.19
2022-11-05T07:09:18.728Z,100614.97
2022-11-05T07:13:30.833Z,100686.25
2022-11-05T07:17:35.470Z,100667.91
2022-11-05T07:21:51.467Z,100685.41
2022-11-05T07:25:51.846Z,100648.44
2022-11-05T07:29:56.956Z,100669.75
2022-11-05T07:34:06.402Z,100688.03
2022-11-05T07:38:13.047Z,100683.03
2022-11-05T07:42:25.571Z,100680.16
2022-11-05T07:46:33.983Z,100678.84
2022-11-05T07:55:24.104Z,100624.97
2022-11-05T07:59:30.233Z,100668.38
2022-11-05T08:03:44.449Z,100665.84
2022-11-05T08:08:35.417Z,100666.66
2022-11-05T08:13:22.776Z,100672.44
2022-11-05T08:23:30.911Z,100661.38
2022-11-05T08:27:49.742Z,100653.41
2022-11-05T08:32:53.595Z,100660.81
2022-11-05T08:37:23.944Z,100597.13
2022-11-05T08:41:45.364Z,100653.00
2022-11-05T08:46:02.808Z,100636.53
2022-11-05T08:51:16.972Z,100613.59
2022-11-05T08:55:44.474Z,100608.53
2022-11-05T09:05:39.363Z,100599.75
2022-11-05T09:10:12.857Z,100637.88
2022-11-05T09:14:53.563Z,100633.03
2022-11-05T09:19:31.386Z,100633.91
2022-11-05T09:28:37.696Z,100633.97
2022-11-05T09:33:10.225Z,100627.00
2022-11-05T09:38:01.219Z,100629.22
2022-11-05T09:42:32.828Z,100626.03
2022-11-05T09:47:12.840Z,100614.47
2022-11-05T09:51:37.327Z,100620.94
2022-11-05T09:55:50.463Z,100618.47
2022-11-05T10:00:03.309Z,100593.53
2022-11-05T10:04:33.433Z,100585.91
2022-11-05T10:09:16.054Z,100605.13
2022-11-05T10:13:28.062Z,100611.91
2022-11-05T10:17:55.659Z,100599.94
2022-11-05T10:22:16.661Z,100614.63
2022-11-05T10:26:33.641Z,100610.41
2022-11-05T10:30:46.788Z,100605.59
2022-11-05T10:34:58.685Z,100613.91
2022-11-05T10:39:18.786Z,100606.81
2022-11-05T10:43:33.189Z,100604.31
2022-11-05T10:48:01.168Z,100605.31
2022-11-05T10:52:28.994Z,100595.72
2022-11-05T10:56:38.396Z,100583.81
2022-11-05T11:00:49.221Z,100578.22
2022-11-05T11:04:58.927Z,100568.94
2022-11-05T11:09:07.266Z,100542.69
2022-11-05T11:18:26.053Z,100565.78
2022-11-05T11:22:42.265Z,100571.97
2022-11-05T11:26:50.350Z,100557.59
2022-11-05T11:30:58.702Z,100564.22
2022-11-05T11:35:04.156Z,100559.13
2022-11-05T11:39:36.544Z,100559.25
2022-11-05T11:44:10.157Z,100551.97
2022-11-05T11:48:58.511Z,100548.94
2022-11-05T11:53:50.123Z,100549.88
2022-11-05T11:57:58.975Z,100537.72
2022-11-05T12:02:58.851Z,100552.97
2022-11-05T12:07:46.969Z,100496.66
2022-11-05T12:12:02.641Z,100541.97
2022-11-05T12:16:23.040Z,100554.72
2022-11-05T12:21:09.765Z,100551.88
2022-11-05T12:25:30.755Z,100550.44
2022-11-05T12:30:09.857Z,100554.34
2022-11-05T12:34:47.768Z,100546.03
2022-11-05T12:39:46.477Z,100540.00
2022-11-05T12:44:28.318Z,100537.06
2022-11-05T12:49:16.124Z,100486.69
2022-11-05T12:53:54.142Z,100522.63
2022-11-05T12:58:18.885Z,100542.25
2022-11-05T13:02:29.443Z,100545.41
2022-11-05T13:06:53.410Z,100493.81
2022-11-05T13:10:58.088Z,100544.19
2022-11-05T13:15:05.353Z,100550.25
2022-11-05T13:19:18.898Z,100529.13
2022-11-05T13:23:36.653Z,100534.13
2022-11-05T13:27:55.148Z,100551.44
2022-11-05T13:32:08.115Z,100543.38
2022-11-05T13:36:48.194Z,100540.25
2022-11-05T13:41:42.185Z,100526.63
2022-11-05T13:46:49.590Z,100546.28
2022-11-05T13:52:24.029Z,100521.28
2022-11-05T13:57:25.700Z,100548.25
2022-11-05T14:02:16.691Z,100537.59
2022-11-05T14:25:07.555Z,100563.97
2022-11-05T14:41:55.905Z,100565.94
2022-11-05T15:34:31.030Z,100565.84
2022-11-05T15:39:08.518Z,100523.16
2022-11-05T15:43:35.539Z,100571.03
2022-11-05T15:48:35.206Z,100575.56
2022-11-05T15:53:44.070Z,100598.84
2022-11-05T15:58:05.638Z,100602.44
2022-11-05T16:02:36.107Z,100608.03
2022-11-05T16:07:26.200Z,100613.72
2022-11-05T16:11:52.327Z,100626.44
2022-11-05T16:16:13.752Z,100635.50
2022-11-05T16:20:42.956Z,100653.41
2022-11-05T16:25:04.984Z,100632.75
2022-11-05T16:29:23.178Z,100674.47
2022-11-05T16:33:53.206Z,100677.47
2022-11-05T16:38:11.309Z,100677.03
2022-11-05T16:42:44.831Z,100687.97
2022-11-05T16:47:06.698Z,100668.25
2022-11-05T16:51:17.065Z,100695.78
2022-11-05T16:55:50.116Z,100677.53
2022-11-05T17:00:19.259Z,100694.19
2022-11-05T17:04:39.290Z,100696.28
2022-11-05T17:08:40.605Z,100700.00
2022-11-05T17:12:46.817Z,100702.00
2022-11-05T17:17:00.832Z,100615.06
2022-11-05T17:21:23.000Z,100708.38
2022-11-05T17:26:01.447Z,100703.19
2022-11-05T17:30:31.203Z,100713.09
2022-11-05T17:34:41.092Z,100698.25
2022-11-05T17:39:03.158Z,100669.47
2022-11-05T17:43:52.797Z,100717.56
2022-11-05T17:48:33.555Z,100715.00
2022-11-05T17:52:53.405Z,100730.50
2022-11-05T17:57:20.538Z,100730.56
2022-11-05T18:01:31.300Z,100727.97
2022-11-05T18:05:44.137Z,100736.13
2022-11-05T18:10:02.854Z,100740.78
2022-11-05T18:14:08.026Z,100681.00
2022-11-05T18:18:35.332Z,100744.00
2022-11-05T18:22:46.481Z,100751.00
2022-11-05T18:26:59.757Z,100738.91
2022-11-05T18:31:21.613Z,100734.56
2022-11-05T18:35:30.127Z,100754.56
2022-11-05T18:39:34.146Z,100757.97
2022-11-05T18:43:41.381Z,100774.00
2022-11-05T18:48:10.660Z,100771.50
2022-11-05T18:52:38.151Z,100774.28
2022-11-05T18:56:59.933Z,100779.91
2022-11-05T19:01:29.022Z,100740.00
2022-11-05T19:05:56.071Z,100787.03
2022-11-05T19:10:13.195Z,100772.34
2022-11-05T19:14:38.080Z,100798.63
2022-11-05T19:18:55.027Z,100801.31
2022-11-05T19:23:10.824Z,100801.44
2022-11-05T19:27:32.126Z,100777.13
2022-11-05T19:32:21.053Z,100798.19
2022-11-05T19:36:46.350Z,100815.84
2022-11-05T19:41:30.197Z,100816.91
2022-11-05T19:45:55.721Z,100801.28
2022-11-05T19:55:06.757Z,100824.19
2022-11-05T19:59:54.658Z,100806.06
2022-11-05T20:04:24.211Z,100828.06
2022-11-05T20:08:47.853Z,100828.09
2022-11-05T20:13:18.588Z,100823.84
2022-11-05T20:17:45.600Z,100830.84
2022-11-05T20:21:50.997Z,100833.53
2022-11-05T20:25:56.815Z,100817.91
2022-11-05T20:30:02.372Z,100839.75
2022-11-05T20:34:09.834Z,100829.25
2022-11-05T20:38:13.192Z,100832.78
2022-11-05T20:42:18.421Z,100845.03
2022-11-05T20:46:47.849Z,100845.03
2022-11-05T20:50:56.939Z,100850.41
2022-11-05T20:54:58.439Z,100853.03
2022-11-05T20:59:23.666Z,100848.75
2022-11-05T21:04:02.500Z,100842.63
2022-11-05T21:08:37.238Z,100856.72
2022-11-05T21:13:02.560Z,100846.19
2022-11-05T21:17:18.050Z,100860.19
2022-11-05T21:21:26.790Z,100862.81
2022-11-05T21:25:36.341Z,100863.75
2022-11-05T21:29:41.177Z,100866.38
2022-11-05T21:34:00.364Z,100859.38
2022-11-05T21:38:29.472Z,100869.03
2022-11-05T21:42:45.675Z,100866.41
2022-11-05T21:46:54.347Z,100864.66
2022-11-05T21:51:33.083Z,100879.53
2022-11-05T21:56:04.763Z,100875.16
2022-11-05T22:00:32.168Z,100882.16
2022-11-05T22:04:54.006Z,100881.25
2022-11-05T22:09:20.989Z,100872.50
2022-11-05T22:13:32.626Z,100892.63
2022-11-05T22:18:17.463Z,100893.50
2022-11-05T22:22:36.683Z,100894.34
2022-11-05T22:27:07.582Z,100892.59
2022-11-05T22:31:41.201Z,100905.69
2022-11-05T22:36:03.092Z,100893.47
2022-11-05T22:40:12.996Z,100895.16
2022-11-05T22:44:14.002Z,100892.53
2022-11-05T22:48:18.679Z,100894.25
2022-11-05T22:52:22.596Z,100855.66
2022-11-05T22:56:29.102Z,100887.19
2022-11-05T23:00:39.241Z,100874.88
2022-11-05T23:05:03.029Z,100903.81
2022-11-05T23:09:23.527Z,100895.88
2022-11-05T23:13:28.988Z,100896.84
2022-11-05T23:17:51.850Z,100840.78
2022-11-05T23:22:11.428Z,100911.69
2022-11-05T23:26:31.730Z,100906.44
2022-11-05T23:31:05.653Z,100911.59
2022-11-05T23:35:30.053Z,100895.81
2022-11-05T23:39:39.644Z,100913.25
2022-11-05T23:43:58.677Z,100857.22
2022-11-05T23:48:19.902Z,100905.31
2022-11-05T23:52:35.807Z,100843.91
2022-11-05T23:56:43.770Z,100903.47
